createdAt,value
2022-08-17T00:01:19.340Z,21.25
2022-08-17T00:03:49.638Z,21.07
2022-08-17T00:06:23.874Z,21.02
2022-08-17T00:08:52.283Z,21.02
2022-08-17T00:11:23.477Z,21.09
2022-08-17T00:13:51.620Z,21.15
2022-08-17T00:16:56.122Z,21.15
2022-08-17T00:19:22.946Z,21.05
2022-08-17T00:22:32.890Z,20.96
2022-08-17T00:24:36.702Z,20.83
2022-08-17T00:27:03.729Z,20.76
2022-08-17T00:29:30.056Z,20.54
2022-08-17T00:31:56.354Z,20.44
2022-08-17T00:34:25.045Z,20.26
2022-08-17T00:36:54.188Z,20.00
2022-08-17T00:39:20.483Z,20.06
2022-08-17T00:41:46.901Z,20.05
2022-08-17T00:44:13.291Z,20.08
2022-08-17T00:46:41.985Z,20.02
2022-08-17T00:49:09.318Z,20.12
2022-08-17T00:51:38.350Z,20.03
2022-08-17T00:54:08.176Z,20.14
2022-08-17T00:56:37.683Z,20.11
2022-08-17T00:59:05.028Z,20.04
2022-08-17T01:01:32.243Z,20.08
2022-08-17T01:03:59.823Z,19.96
2022-08-17T01:06:28.278Z,19.92
2022-08-17T01:08:57.721Z,19.90
2022-08-17T01:11:24.351Z,20.02
2022-08-17T01:13:50.670Z,19.87
2022-08-17T01:16:21.691Z,19.92
2022-08-17T01:18:48.844Z,19.87
2022-08-17T01:21:20.143Z,19.85
2022-08-17T01:23:46.442Z,19.84
2022-08-17T01:26:12.982Z,19.85
2022-08-17T01:28:53.700Z,19.84
2022-08-17T01:31:22.815Z,19.81
2022-08-17T01:33:49.122Z,19.84
2022-08-17T01:36:15.459Z,19.71
2022-08-17T01:38:41.881Z,19.69
2022-08-17T01:41:11.757Z,19.78
2022-08-17T01:43:41.790Z,19.75
2022-08-17T01:46:08.159Z,19.67
2022-08-17T01:48:35.635Z,19.68
2022-08-17T01:51:02.180Z,19.50
2022-08-17T01:53:32.883Z,19.47
2022-08-17T01:56:02.663Z,19.47
2022-08-17T01:58:29.333Z,19.41
2022-08-17T02:01:00.585Z,19.31
2022-08-17T02:03:27.758Z,19.36
2022-08-17T02:05:54.061Z,19.27
2022-08-17T02:08:21.588Z,19.26
2022-08-17T02:11:11.390Z,19.09
2022-08-17T02:13:38.605Z,19.04
2022-08-17T02:16:05.247Z,19.00
2022-08-17T02:18:31.607Z,19.10
2022-08-17T02:20:58.067Z,19.10
2022-08-17T02:23:26.299Z,19.00
2022-08-17T02:25:53.461Z,18.96
2022-08-17T02:28:19.792Z,18.95
2022-08-17T02:31:01.977Z,18.93
2022-08-17T02:33:43.149Z,18.91
2022-08-17T02:36:10.855Z,18.87
2022-08-17T02:38:37.767Z,18.93
2022-08-17T02:41:04.595Z,18.89
2022-08-17T02:43:31.235Z,19.00
2022-08-17T02:45:57.535Z,18.89
2022-08-17T02:48:30.796Z,18.84
2022-08-17T02:50:58.138Z,18.89
2022-08-17T02:53:24.463Z,18.78
2022-08-17T02:55:52.457Z,18.78
2022-08-17T02:58:34.296Z,18.73
2022-08-17T03:01:03.278Z,18.70
2022-08-17T03:03:29.679Z,18.65
2022-08-17T03:05:56.273Z,18.57
2022-08-17T03:08:23.281Z,18.59
2022-08-17T03:10:50.479Z,18.65
2022-08-17T03:13:16.956Z,18.58
2022-08-17T03:15:47.696Z,18.57
2022-08-17T03:18:21.924Z,18.62
2022-08-17T03:20:52.692Z,18.61
2022-08-17T03:23:19.058Z,18.58
2022-08-17T03:25:53.358Z,18.55
2022-08-17T03:28:20.188Z,18.71
2022-08-17T03:30:46.672Z,18.67
2022-08-17T03:33:13.114Z,18.56
2022-08-17T03:35:40.380Z,18.56
2022-08-17T03:38:07.742Z,18.55
2022-08-17T03:40:34.779Z,18.58
2022-08-17T03:43:21.587Z,18.52
2022-08-17T03:46:27.022Z,18.57
2022-08-17T03:49:11.271Z,18.52
2022-08-17T03:51:56.183Z,18.55
2022-08-17T03:54:41.032Z,18.49
2022-08-17T03:57:08.582Z,18.48
2022-08-17T03:59:35.326Z,18.54
2022-08-17T04:02:04.910Z,18.68
2022-08-17T04:04:31.258Z,18.64
2022-08-17T04:06:57.870Z,18.42
2022-08-17T04:09:24.169Z,18.33
2022-08-17T04:11:50.490Z,18.35
2022-08-17T04:14:16.798Z,18.33
2022-08-17T04:16:43.203Z,18.28
2022-08-17T04:19:09.563Z,18.34
2022-08-17T04:21:35.920Z,18.36
2022-08-17T04:24:02.652Z,18.39
2022-08-17T04:26:53.668Z,18.29
2022-08-17T04:29:17.046Z,18.37
2022-08-17T04:31:43.654Z,18.47
2022-08-17T04:34:10.543Z,18.52
2022-08-17T04:36:36.882Z,18.62
2022-08-17T04:39:03.711Z,18.62
2022-08-17T04:41:48.621Z,18.58
2022-08-17T04:44:14.964Z,18.63
2022-08-17T04:47:01.301Z,18.54
2022-08-17T04:49:27.638Z,18.66
2022-08-17T04:51:55.719Z,18.82
2022-08-17T04:54:23.778Z,18.95
2022-08-17T04:56:50.081Z,19.10
2022-08-17T04:59:20.481Z,19.10
2022-08-17T05:01:48.586Z,19.19
2022-08-17T05:04:32.125Z,19.24
2022-08-17T05:07:01.027Z,19.31
2022-08-17T05:09:27.331Z,19.28
2022-08-17T05:11:53.682Z,19.24
2022-08-17T05:14:22.504Z,19.36
2022-08-17T05:16:59.576Z,19.36
2022-08-17T05:19:27.310Z,19.39
2022-08-17T05:21:53.802Z,19.57
2022-08-17T05:24:39.043Z,19.71
2022-08-17T05:27:06.902Z,19.95
2022-08-17T05:29:35.076Z,20.16
2022-08-17T05:32:37.976Z,20.35
2022-08-17T05:34:56.143Z,20.64
2022-08-17T05:37:22.657Z,20.90
2022-08-17T05:39:49.038Z,21.21
2022-08-17T05:42:18.626Z,21.35
2022-08-17T05:44:44.955Z,21.51
2022-08-17T05:47:11.261Z,21.68
2022-08-17T05:49:37.593Z,22.12
2022-08-17T05:52:20.469Z,22.19
2022-08-17T05:55:10.809Z,22.19
2022-08-17T05:57:55.924Z,22.25
2022-08-17T06:00:26.308Z,22.10
2022-08-17T06:03:00.339Z,22.04
2022-08-17T06:05:51.411Z,22.03
2022-08-17T06:08:20.459Z,21.95
2022-08-17T06:10:50.539Z,21.82
2022-08-17T06:13:31.625Z,21.80
2022-08-17T06:16:04.555Z,21.82
2022-08-17T06:18:57.121Z,21.81
2022-08-17T06:21:30.470Z,21.84
2022-08-17T06:24:04.541Z,21.77
2022-08-17T06:26:39.600Z,21.90
2022-08-17T06:29:26.993Z,22.05
2022-08-17T06:31:53.312Z,22.32
2022-08-17T06:34:20.837Z,22.76
2022-08-17T06:37:00.955Z,22.92
2022-08-17T06:39:50.914Z,23.05
2022-08-17T06:43:02.909Z,23.37
2022-08-17T06:45:18.229Z,23.62
2022-08-17T06:47:52.895Z,23.81
2022-08-17T06:50:28.638Z,24.25
2022-08-17T06:53:00.803Z,24.61
2022-08-17T06:55:45.118Z,24.71
2022-08-17T06:58:16.085Z,24.81
2022-08-17T07:00:44.409Z,24.89
2022-08-17T07:03:31.758Z,25.21
2022-08-17T07:06:00.886Z,25.33
2022-08-17T07:08:47.090Z,25.50
2022-08-17T07:11:15.093Z,25.60
2022-08-17T07:14:00.290Z,25.79
2022-08-17T07:16:30.362Z,26.61
2022-08-17T07:18:58.901Z,26.62
2022-08-17T07:21:32.252Z,26.80
2022-08-17T07:24:03.228Z,26.88
2022-08-17T07:26:29.660Z,27.09
2022-08-17T07:28:56.262Z,27.25
2022-08-17T07:31:24.005Z,27.23
2022-08-17T07:34:01.458Z,27.34
2022-08-17T07:36:33.597Z,27.66
2022-08-17T07:39:01.074Z,27.63
2022-08-17T07:41:27.749Z,27.50
2022-08-17T07:44:15.246Z,27.87
2022-08-17T07:47:08.214Z,28.58
2022-08-17T07:49:36.192Z,28.30
2022-08-17T07:52:48.098Z,28.60
2022-08-17T07:54:51.726Z,28.56
2022-08-17T07:57:26.555Z,28.63
2022-08-17T08:00:01.760Z,28.73
2022-08-17T08:02:31.974Z,28.98
2022-08-17T08:05:02.535Z,28.61
2022-08-17T08:07:31.586Z,29.63
2022-08-17T08:10:04.187Z,29.69
2022-08-17T08:12:39.448Z,28.91
2022-08-17T08:15:22.831Z,29.21
2022-08-17T08:17:56.453Z,29.75
2022-08-17T08:20:52.266Z,29.89
2022-08-17T08:23:25.591Z,29.84
2022-08-17T08:25:56.497Z,29.75
2022-08-17T08:28:43.008Z,30.09
2022-08-17T08:31:16.158Z,30.11
2022-08-17T08:33:46.385Z,30.25
2022-08-17T08:36:12.713Z,30.07
2022-08-17T08:39:04.626Z,30.05
2022-08-17T08:41:44.725Z,29.97
2022-08-17T08:44:19.560Z,30.09
2022-08-17T08:46:48.941Z,30.14
2022-08-17T08:50:01.404Z,30.20
2022-08-17T08:52:34.031Z,30.68
2022-08-17T08:55:08.076Z,30.84
2022-08-17T08:57:38.252Z,30.51
2022-08-17T09:00:14.767Z,30.53
2022-08-17T09:02:41.052Z,30.70
2022-08-17T09:05:17.090Z,30.95
2022-08-17T09:07:57.740Z,31.40
2022-08-17T09:10:30.767Z,31.15
2022-08-17T09:13:13.256Z,30.90
2022-08-17T09:15:45.162Z,30.82
2022-08-17T09:18:59.867Z,30.86
2022-08-17T09:21:14.265Z,31.68
2022-08-17T09:23:51.482Z,31.39
2022-08-17T09:26:25.547Z,31.31
2022-08-17T09:28:55.676Z,31.27
2022-08-17T09:31:27.683Z,31.96
2022-08-17T09:33:58.660Z,32.32
2022-08-17T09:36:28.064Z,32.28
2022-08-17T09:39:03.406Z,32.10
2022-08-17T09:41:49.471Z,32.61
2022-08-17T09:44:35.678Z,32.51
2022-08-17T09:47:01.946Z,32.38
2022-08-17T09:49:42.482Z,32.53
2022-08-17T09:52:20.212Z,31.74
2022-08-17T09:54:46.851Z,31.05
2022-08-17T09:57:29.728Z,30.93
2022-08-17T10:00:15.764Z,31.12
2022-08-17T10:02:51.175Z,32.27
2022-08-17T10:05:21.975Z,32.45
2022-08-17T10:07:48.258Z,32.49
2022-08-17T10:10:19.582Z,32.54
2022-08-17T10:12:48.993Z,32.43
2022-08-17T10:15:42.420Z,32.30
2022-08-17T10:18:31.845Z,32.69
2022-08-17T10:21:24.476Z,32.63
2022-08-17T10:24:12.972Z,32.40
2022-08-17T10:26:56.651Z,32.40
2022-08-17T10:29:29.756Z,32.79
2022-08-17T10:32:10.648Z,33.13
2022-08-17T10:34:56.257Z,32.99
2022-08-17T10:37:31.417Z,32.38
2022-08-17T10:40:07.493Z,32.27
2022-08-17T10:42:36.743Z,31.95
2022-08-17T10:45:06.286Z,32.20
2022-08-17T10:47:55.382Z,32.15
2022-08-17T10:50:58.712Z,32.09
2022-08-17T10:53:43.527Z,32.06
2022-08-17T10:56:12.901Z,31.82
2022-08-17T10:58:55.860Z,31.86
2022-08-17T11:01:43.418Z,32.12
2022-08-17T11:04:18.913Z,32.05
2022-08-17T11:06:51.402Z,31.99
2022-08-17T11:09:18.543Z,31.82
2022-08-17T11:11:47.302Z,32.10
2022-08-17T11:14:23.844Z,31.93
2022-08-17T11:16:58.766Z,31.57
2022-08-17T11:19:37.081Z,32.10
2022-08-17T11:22:09.154Z,32.07
2022-08-17T11:24:36.828Z,32.19
2022-08-17T11:27:12.122Z,32.24
2022-08-17T11:29:51.995Z,32.95
2022-08-17T11:32:31.233Z,32.96
2022-08-17T11:35:11.987Z,33.31
2022-08-17T11:37:45.041Z,33.73
2022-08-17T11:40:33.910Z,34.06
2022-08-17T11:43:09.484Z,33.79
2022-08-17T11:45:44.730Z,33.30
2022-08-17T11:48:52.355Z,32.88
2022-08-17T11:51:33.703Z,32.66
2022-08-17T11:54:31.082Z,32.59
2022-08-17T11:56:51.081Z,32.37
2022-08-17T11:59:45.917Z,32.08
2022-08-17T12:02:34.912Z,31.76
2022-08-17T12:05:03.633Z,32.16
2022-08-17T12:07:34.104Z,32.18
2022-08-17T12:10:00.786Z,32.49
2022-08-17T12:12:33.139Z,32.71
2022-08-17T12:15:10.524Z,32.96
2022-08-17T12:17:41.244Z,32.80
2022-08-17T12:20:19.530Z,33.01
2022-08-17T12:22:57.675Z,33.15
2022-08-17T12:25:33.577Z,33.06
2022-08-17T12:28:05.521Z,33.48
2022-08-17T12:30:33.995Z,34.01
2022-08-17T12:33:00.602Z,34.09
2022-08-17T12:35:33.128Z,33.84
2022-08-17T12:37:59.765Z,33.95
2022-08-17T12:40:27.446Z,33.26
2022-08-17T12:42:59.679Z,32.12
2022-08-17T12:45:30.646Z,31.95
2022-08-17T12:48:02.623Z,31.81
2022-08-17T12:50:30.249Z,31.56
2022-08-17T12:53:01.742Z,32.04
2022-08-17T12:55:32.520Z,31.99
2022-08-17T12:58:00.817Z,31.89
2022-08-17T13:00:40.855Z,31.82
2022-08-17T13:03:13.763Z,31.53
2022-08-17T13:05:41.827Z,31.36
2022-08-17T13:08:14.390Z,31.50
2022-08-17T13:10:40.791Z,31.48
2022-08-17T13:13:18.241Z,31.33
2022-08-17T13:15:52.407Z,31.70
2022-08-17T13:18:39.955Z,31.78
2022-08-17T13:21:27.777Z,31.95
2022-08-17T13:24:14.593Z,31.82
2022-08-17T13:26:41.130Z,31.69
2022-08-17T13:29:21.799Z,31.73
2022-08-17T13:31:53.020Z,31.68
2022-08-17T13:34:45.724Z,31.81
2022-08-17T13:37:32.711Z,31.93
2022-08-17T13:40:08.186Z,31.59
2022-08-17T13:42:50.425Z,31.47
2022-08-17T13:45:36.066Z,31.62
2022-08-17T13:48:14.137Z,31.78
2022-08-17T13:50:42.827Z,31.77
2022-08-17T13:53:35.609Z,31.63
2022-08-17T13:56:07.377Z,31.89
2022-08-17T13:58:55.636Z,31.74
2022-08-17T14:01:34.046Z,31.46
2022-08-17T14:04:02.164Z,31.49
2022-08-17T14:06:51.839Z,31.66
2022-08-17T14:09:19.649Z,31.74
2022-08-17T14:11:47.939Z,31.66
2022-08-17T14:14:15.651Z,31.80
2022-08-17T14:16:42.351Z,31.71
2022-08-17T14:19:09.973Z,31.47
2022-08-17T14:21:36.785Z,31.67
2022-08-17T14:24:03.422Z,31.44
2022-08-17T14:26:29.775Z,31.30
2022-08-17T14:28:56.854Z,31.76
2022-08-17T14:31:23.408Z,31.86
2022-08-17T14:33:49.707Z,31.92
2022-08-17T14:36:16.049Z,31.67
2022-08-17T14:38:42.414Z,31.40
2022-08-17T14:41:08.744Z,31.67
2022-08-17T14:43:35.287Z,31.52
2022-08-17T14:46:01.661Z,31.53
2022-08-17T14:48:28.856Z,31.55
2022-08-17T14:50:56.225Z,31.63
2022-08-17T14:53:22.593Z,31.32
2022-08-17T14:55:49.970Z,31.58
2022-08-17T14:58:16.271Z,31.48
2022-08-17T15:00:43.527Z,31.57
2022-08-17T15:03:11.477Z,31.68
2022-08-17T15:05:38.439Z,31.69
2022-08-17T15:08:05.531Z,31.90
2022-08-17T15:10:32.189Z,31.75
2022-08-17T15:12:58.529Z,31.63
2022-08-17T15:15:25.176Z,31.75
2022-08-17T15:17:51.652Z,31.67
2022-08-17T15:20:23.813Z,31.67
2022-08-17T15:22:50.369Z,31.48
2022-08-17T15:25:17.628Z,31.53
2022-08-17T15:27:44.079Z,31.61
2022-08-17T15:30:11.003Z,31.46
2022-08-17T15:32:38.984Z,31.42
2022-08-17T15:35:06.373Z,31.38
2022-08-17T15:37:32.749Z,31.58
2022-08-17T15:40:01.151Z,31.31
2022-08-17T15:42:27.679Z,31.29
2022-08-17T15:44:55.236Z,31.26
2022-08-17T15:47:21.829Z,31.23
2022-08-17T15:49:48.740Z,31.27
2022-08-17T15:52:16.853Z,31.11
2022-08-17T15:54:45.327Z,31.39
2022-08-17T15:57:12.948Z,31.27
2022-08-17T15:59:40.315Z,31.21
2022-08-17T16:03:16.041Z,31.12
2022-08-17T16:05:13.835Z,31.19
2022-08-17T16:07:40.339Z,31.13
2022-08-17T16:10:07.766Z,31.36
2022-08-17T16:12:34.734Z,31.00
2022-08-17T16:15:01.841Z,31.06
2022-08-17T16:17:40.291Z,31.19
2022-08-17T16:20:20.654Z,31.26
2022-08-17T16:22:47.913Z,31.21
2022-08-17T16:25:16.771Z,30.89
2022-08-17T16:27:43.463Z,30.96
2022-08-17T16:30:16.478Z,30.80
2022-08-17T16:32:43.695Z,30.87
2022-08-17T16:35:11.179Z,30.75
2022-08-17T16:37:39.442Z,30.78
2022-08-17T16:40:07.774Z,30.74
2022-08-17T16:42:34.824Z,30.83
2022-08-17T16:45:02.823Z,30.68
2022-08-17T16:47:29.129Z,30.59
2022-08-17T16:49:55.536Z,30.50
2022-08-17T16:52:32.494Z,30.69
2022-08-17T16:55:00.437Z,30.47
2022-08-17T16:57:27.321Z,30.42
2022-08-17T16:59:53.863Z,30.35
2022-08-17T17:02:31.352Z,30.28
2022-08-17T17:05:16.512Z,30.26
2022-08-17T17:07:52.328Z,30.24
2022-08-17T17:10:20.791Z,30.17
2022-08-17T17:13:03.619Z,30.04
2022-08-17T17:16:06.138Z,29.92
2022-08-17T17:18:47.523Z,29.87
2022-08-17T17:21:16.737Z,29.76
2022-08-17T17:23:57.920Z,29.67
2022-08-17T17:26:32.127Z,29.56
2022-08-17T17:29:18.334Z,29.57
2022-08-17T17:32:04.910Z,29.54
2022-08-17T17:34:32.957Z,29.60
2022-08-17T17:37:01.077Z,29.46
2022-08-17T17:39:50.829Z,29.32
2022-08-17T17:42:20.500Z,29.28
2022-08-17T17:44:48.987Z,29.25
2022-08-17T17:47:15.688Z,29.19
2022-08-17T17:49:43.912Z,28.91
2022-08-17T17:52:18.886Z,28.82
2022-08-17T17:55:04.519Z,28.77
2022-08-17T17:57:50.003Z,28.55
2022-08-17T18:00:19.566Z,28.52
2022-08-17T18:02:56.446Z,28.49
2022-08-17T18:05:22.750Z,28.33
2022-08-17T18:07:53.128Z,28.26
2022-08-17T18:10:29.517Z,28.21
2022-08-17T18:13:01.326Z,28.02
2022-08-17T18:15:30.127Z,27.90
2022-08-17T18:18:01.080Z,27.99
2022-08-17T18:20:35.950Z,27.84
2022-08-17T18:23:14.012Z,27.78
2022-08-17T18:25:45.257Z,27.60
2022-08-17T18:28:22.988Z,27.43
2022-08-17T18:31:16.124Z,27.30
2022-08-17T18:33:46.520Z,27.22
2022-08-17T18:36:13.287Z,27.31
2022-08-17T18:38:41.965Z,27.03
2022-08-17T18:41:19.561Z,26.98
2022-08-17T18:43:57.577Z,27.04
2022-08-17T18:46:33.154Z,26.80
2022-08-17T18:49:00.932Z,26.76
2022-08-17T18:51:42.141Z,26.65
2022-08-17T18:54:18.263Z,26.59
2022-08-17T18:56:55.129Z,26.59
2022-08-17T18:59:24.236Z,26.39
2022-08-17T19:01:59.314Z,26.33
2022-08-17T19:04:33.957Z,26.26
2022-08-17T19:07:03.926Z,26.15
2022-08-17T19:09:32.945Z,26.05
2022-08-17T19:12:00.825Z,26.10
2022-08-17T19:14:27.382Z,26.09
2022-08-17T19:16:57.279Z,25.95
2022-08-17T19:19:28.304Z,25.88
2022-08-17T19:21:56.118Z,26.03
2022-08-17T19:24:23.428Z,25.77
2022-08-17T19:26:57.537Z,25.62
2022-08-17T19:29:26.539Z,25.66
2022-08-17T19:31:56.118Z,25.63
2022-08-17T19:34:33.746Z,25.53
2022-08-17T19:37:21.487Z,25.47
2022-08-17T19:40:41.845Z,25.36
2022-08-17T19:43:12.454Z,25.25
2022-08-17T19:45:45.547Z,25.21
2022-08-17T19:48:18.698Z,25.11
2022-08-17T19:50:44.987Z,25.19
2022-08-17T19:53:47.789Z,25.22
2022-08-17T19:56:21.516Z,24.99
2022-08-17T19:58:54.366Z,24.86
2022-08-17T20:01:31.158Z,24.77
2022-08-17T20:04:10.849Z,24.68
2022-08-17T20:06:38.746Z,24.52
2022-08-17T20:09:33.872Z,24.53
2022-08-17T20:12:11.198Z,24.55
2022-08-17T20:14:41.418Z,24.32
2022-08-17T20:17:20.589Z,24.13
2022-08-17T20:19:57.395Z,24.43
2022-08-17T20:22:28.461Z,24.28
2022-08-17T20:25:09.742Z,24.27
2022-08-17T20:27:47.219Z,24.14
2022-08-17T20:30:33.515Z,24.07
2022-08-17T20:33:00.541Z,23.99
2022-08-17T20:35:33.709Z,23.83
2022-08-17T20:38:05.858Z,23.75
2022-08-17T20:40:39.924Z,23.73
2022-08-17T20:43:24.873Z,23.64
2022-08-17T20:46:01.028Z,23.60
2022-08-17T20:48:38.045Z,23.53
2022-08-17T20:51:12.751Z,23.47
2022-08-17T20:53:48.035Z,23.38
2022-08-17T20:56:33.210Z,23.29
2022-08-17T20:59:00.711Z,23.20
2022-08-17T21:01:53.530Z,23.11
2022-08-17T21:04:38.320Z,23.10
2022-08-17T21:07:23.510Z,23.13
2022-08-17T21:09:50.681Z,23.17
2022-08-17T21:12:35.644Z,23.13
2022-08-17T21:15:05.357Z,22.97
2022-08-17T21:17:34.526Z,22.86
2022-08-17T21:20:20.008Z,22.71
2022-08-17T21:22:52.232Z,22.75
2022-08-17T21:25:37.413Z,22.87
2022-08-17T21:28:07.191Z,22.75
2022-08-17T21:30:35.483Z,22.73
2022-08-17T21:33:18.599Z,22.72
2022-08-17T21:35:52.433Z,22.80
2022-08-17T21:38:21.455Z,22.69
2022-08-17T21:40:50.219Z,22.63
2022-08-17T21:43:23.568Z,22.73
2022-08-17T21:45:58.500Z,22.74
2022-08-17T21:48:26.239Z,22.41
2022-08-17T21:51:00.925Z,22.08
2022-08-17T21:53:38.086Z,22.07
2022-08-17T21:56:05.040Z,22.11
2022-08-17T21:58:33.158Z,22.09
2022-08-17T22:01:18.547Z,22.12
2022-08-17T22:03:46.100Z,22.27
2022-08-17T22:06:19.967Z,22.26
2022-08-17T22:08:57.141Z,22.11
2022-08-17T22:11:23.546Z,21.96
2022-08-17T22:13:49.856Z,21.92
2022-08-17T22:16:29.454Z,21.96
2022-08-17T22:18:57.946Z,21.98
2022-08-17T22:21:25.071Z,21.87
2022-08-17T22:24:05.864Z,21.78
2022-08-17T22:26:51.109Z,21.80
2022-08-17T22:29:36.228Z,21.81
2022-08-17T22:32:02.725Z,21.74
2022-08-17T22:34:29.249Z,21.72
2022-08-17T22:37:18.602Z,21.59
2022-08-17T22:39:45.305Z,21.59
2022-08-17T22:42:14.881Z,21.51
2022-08-17T22:44:48.571Z,21.53
2022-08-17T22:47:14.868Z,21.41
2022-08-17T22:49:53.776Z,21.44
2022-08-17T22:52:32.119Z,21.41
2022-08-17T22:55:23.735Z,21.42
2022-08-17T22:58:08.672Z,21.44
2022-08-17T23:00:39.937Z,21.39
2022-08-17T23:03:26.072Z,21.38
2022-08-17T23:06:03.743Z,21.49
2022-08-17T23:08:30.800Z,21.36
2022-08-17T23:11:00.104Z,21.15
2022-08-17T23:13:27.290Z,20.87
2022-08-17T23:15:53.584Z,20.93
2022-08-17T23:18:19.971Z,20.84
2022-08-17T23:20:46.277Z,20.96
2022-08-17T23:23:13.945Z,21.02
2022-08-17T23:25:44.537Z,20.97
2022-08-17T23:28:11.316Z,20.89
2022-08-17T23:30:40.072Z,20.75
2022-08-17T23:33:08.272Z,20.82
2022-08-17T23:35:39.395Z,20.79
2022-08-17T23:38:07.792Z,20.66
2022-08-17T23:40:34.472Z,20.69
2022-08-17T23:43:00.816Z,20.69
2022-08-17T23:45:32.321Z,20.72
2022-08-17T23:47:58.624Z,20.57
2022-08-17T23:50:25.062Z,20.53
2022-08-17T23:52:59.001Z,20.69
2022-08-17T23:55:25.306Z,20.43
2022-08-17T23:57:51.715Z,20.37
